createdAt,value
2018-04-22T00:01:21.175Z,12.77
2018-04-22T00:03:48.036Z,12.60
2018-04-22T00:06:14.895Z,11.80
2018-04-22T00:08:41.781Z,13.17
2018-04-22T00:11:08.684Z,13.60
2018-04-22T00:13:35.596Z,12.83
2018-04-22T00:16:02.867Z,11.97
2018-04-22T00:18:30.176Z,12.07
2018-04-22T00:20:57.057Z,14.57
2018-04-22T00:23:23.917Z,12.57
2018-04-22T00:25:51.153Z,14.53
2018-04-22T00:28:18.013Z,15.07
2018-04-22T00:30:44.972Z,14.57
2018-04-22T00:33:11.849Z,14.87
2018-04-22T00:35:38.710Z,14.10
2018-04-22T00:38:05.573Z,13.80
2018-04-22T00:40:32.452Z,14.17
2018-04-22T00:42:59.307Z,12.90
2018-04-22T00:45:26.197Z,12.93
2018-04-22T00:47:53.072Z,14.57
2018-04-22T00:50:19.921Z,13.40
2018-04-22T00:52:46.887Z,12.30
2018-04-22T00:55:13.846Z,12.97
2018-04-22T00:57:40.846Z,14.57
2018-04-22T01:00:07.764Z,12.90
2018-04-22T01:02:34.640Z,13.63
2018-04-22T01:05:01.529Z,12.30
2018-04-22T01:07:28.437Z,13.17
2018-04-22T01:09:55.297Z,12.87
2018-04-22T01:12:22.256Z,12.47
2018-04-22T01:14:49.126Z,13.17
2018-04-22T01:17:16.085Z,13.17
2018-04-22T01:19:43.028Z,13.03
2018-04-22T01:22:09.985Z,13.30
2018-04-22T01:24:36.852Z,13.00
2018-04-22T01:27:03.736Z,13.60
2018-04-22T01:29:30.631Z,13.27
2018-04-22T01:31:57.544Z,12.83
2018-04-22T01:34:24.425Z,12.10
2018-04-22T01:36:51.305Z,12.27
2018-04-22T01:39:18.612Z,12.67
2018-04-22T01:41:45.477Z,12.43
2018-04-22T01:44:12.433Z,13.10
2018-04-22T01:46:39.280Z,13.37
2018-04-22T01:49:06.242Z,12.90
2018-04-22T01:51:33.206Z,13.33
2018-04-22T01:54:00.080Z,13.50
2018-04-22T01:56:27.028Z,12.47
2018-04-22T01:58:53.976Z,14.23
2018-04-22T02:01:21.902Z,13.00
2018-04-22T02:03:48.819Z,13.40
2018-04-22T02:06:15.694Z,12.97
2018-04-22T02:08:42.650Z,12.50
2018-04-22T02:11:09.525Z,13.07
2018-04-22T02:13:36.383Z,12.30
2018-04-22T02:16:03.307Z,11.63
2018-04-22T02:18:30.164Z,11.73
2018-04-22T02:20:57.041Z,12.57
2018-04-22T02:23:23.915Z,12.30
2018-04-22T02:25:50.798Z,12.93
2018-04-22T02:28:18.105Z,13.90
2018-04-22T02:30:44.989Z,13.00
2018-04-22T02:33:11.923Z,13.30
2018-04-22T02:35:38.776Z,13.23
2018-04-22T02:38:05.741Z,12.73
2018-04-22T02:40:32.636Z,12.30
2018-04-22T02:42:59.568Z,13.40
2018-04-22T02:45:26.429Z,13.57
2018-04-22T02:47:53.432Z,12.17
2018-04-22T02:50:20.703Z,13.77
2018-04-22T02:52:48.004Z,13.00
2018-04-22T02:55:14.877Z,11.80
2018-04-22T02:57:41.757Z,13.03
2018-04-22T03:00:08.624Z,13.20
2018-04-22T03:02:35.532Z,13.60
2018-04-22T03:05:02.417Z,13.47
2018-04-22T03:07:29.271Z,13.10
2018-04-22T03:09:56.208Z,13.00
2018-04-22T03:12:23.100Z,15.17
2018-04-22T03:14:50.038Z,13.90
2018-04-22T03:17:16.992Z,15.30
2018-04-22T03:19:43.866Z,14.10
2018-04-22T03:22:10.839Z,14.53
2018-04-22T03:24:37.772Z,14.50
2018-04-22T03:27:04.727Z,14.53
2018-04-22T03:29:31.687Z,13.80
2018-04-22T03:31:58.537Z,14.33
2018-04-22T03:34:25.502Z,13.57
2018-04-22T03:36:52.368Z,13.30
2018-04-22T03:39:19.317Z,14.90
2018-04-22T03:41:46.272Z,16.50
2018-04-22T03:44:13.132Z,14.80
2018-04-22T03:46:40.100Z,14.40
2018-04-22T03:49:06.963Z,14.90
2018-04-22T03:51:33.848Z,15.57
2018-04-22T03:54:00.709Z,14.57
2018-04-22T03:56:27.556Z,15.30
2018-04-22T03:58:54.451Z,15.47
2018-04-22T04:01:21.358Z,16.33
2018-04-22T04:03:48.234Z,16.20
2018-04-22T04:06:15.125Z,16.47
2018-04-22T04:08:42.436Z,15.80
2018-04-22T04:11:09.319Z,15.57
2018-04-22T04:13:36.180Z,15.90
2018-04-22T04:16:03.064Z,16.43
2018-04-22T04:21:41.516Z,16.00
2018-04-22T04:27:24.069Z,15.13
2018-04-22T04:29:50.936Z,16.40
2018-04-22T04:32:18.192Z,16.30
2018-04-22T04:34:45.073Z,15.40
2018-04-22T04:37:12.315Z,16.30
2018-04-22T04:39:39.178Z,17.43
2018-04-22T04:42:06.449Z,17.90
2018-04-22T04:44:33.698Z,16.50
2018-04-22T04:47:00.619Z,17.40
2018-04-22T04:49:27.576Z,17.27
2018-04-22T04:51:54.536Z,15.90
2018-04-22T04:54:21.511Z,15.93
2018-04-22T04:56:48.464Z,18.53
2018-04-22T04:59:15.319Z,17.53
2018-04-22T05:01:42.264Z,16.13
2018-04-22T05:04:09.124Z,17.50
2018-04-22T05:06:36.093Z,16.17
2018-04-22T05:09:02.949Z,18.13
2018-04-22T05:11:29.848Z,16.77
2018-04-22T05:13:56.742Z,17.27
2018-04-22T05:16:23.681Z,16.27
2018-04-22T05:18:50.954Z,17.10
2018-04-22T05:21:18.255Z,16.60
2018-04-22T05:23:45.207Z,16.27
2018-04-22T05:26:12.069Z,16.10
2018-04-22T05:28:39.029Z,16.47
2018-04-22T05:31:06.020Z,16.53
2018-04-22T05:33:32.952Z,16.67
2018-04-22T05:35:59.841Z,16.90
2018-04-22T05:38:26.785Z,16.00
2018-04-22T05:40:53.655Z,16.57
2018-04-22T05:43:20.582Z,20.63
2018-04-22T05:45:47.545Z,19.87
2018-04-22T05:48:14.392Z,20.50
2018-04-22T05:50:41.270Z,20.57
2018-04-22T05:53:08.225Z,21.93
2018-04-22T05:55:35.089Z,22.53
2018-04-22T05:58:01.969Z,22.27
2018-04-22T06:00:28.888Z,24.40
2018-04-22T06:02:55.760Z,23.93
2018-04-22T06:05:22.672Z,22.93
2018-04-22T06:07:50.077Z,21.80
2018-04-22T06:10:16.928Z,22.67
2018-04-22T06:12:43.821Z,20.13
2018-04-22T06:15:10.681Z,19.70
2018-04-22T06:17:38.357Z,20.40
2018-04-22T06:20:05.278Z,19.90
2018-04-22T06:22:32.237Z,20.33
2018-04-22T06:24:59.097Z,20.90
2018-04-22T06:27:25.966Z,22.87
2018-04-22T06:29:52.845Z,20.47
2018-04-22T06:32:19.773Z,20.97
2018-04-22T06:34:46.654Z,20.00
2018-04-22T06:37:13.608Z,20.47
2018-04-22T06:39:40.458Z,21.57
2018-04-22T06:42:07.404Z,19.93
2018-04-22T06:44:34.264Z,21.53
2018-04-22T06:47:01.215Z,18.73
2018-04-22T06:49:28.154Z,20.97
2018-04-22T06:51:55.473Z,20.23
2018-04-22T06:54:22.568Z,21.33
2018-04-22T06:56:49.880Z,22.10
2018-04-22T06:59:16.826Z,18.93
2018-04-22T07:01:43.791Z,17.53
2018-04-22T07:04:10.656Z,20.20
2018-04-22T07:06:39.432Z,20.43
2018-04-22T07:09:06.309Z,17.80
2018-04-22T07:11:33.274Z,19.13
2018-04-22T07:14:00.225Z,19.30
2018-04-22T07:16:27.095Z,19.87
2018-04-22T07:18:53.974Z,20.40
2018-04-22T07:21:20.882Z,20.13
2018-04-22T07:23:47.743Z,18.83
2018-04-22T07:26:14.604Z,21.63
2018-04-22T07:28:41.464Z,23.20
2018-04-22T07:31:08.430Z,22.63
2018-04-22T07:33:35.306Z,23.03
2018-04-22T07:36:02.272Z,22.77
2018-04-22T07:38:29.208Z,23.00
2018-04-22T07:40:56.060Z,22.93
2018-04-22T07:43:23.029Z,24.10
2018-04-22T07:45:49.919Z,22.77
2018-04-22T07:48:16.780Z,22.40
2018-04-22T07:50:43.669Z,25.50
2018-04-22T07:53:10.518Z,22.80
2018-04-22T07:55:37.402Z,23.70
2018-04-22T07:58:04.366Z,24.60
2018-04-22T08:00:31.222Z,24.90
2018-04-22T08:02:58.197Z,25.47
2018-04-22T08:05:25.132Z,25.20
2018-04-22T08:07:52.094Z,24.80
2018-04-22T08:10:18.981Z,24.80
2018-04-22T08:12:45.929Z,24.87
2018-04-22T08:15:12.798Z,23.10
2018-04-22T08:17:39.673Z,25.70
2018-04-22T08:20:06.986Z,24.40
2018-04-22T08:22:33.844Z,25.30
2018-04-22T08:25:00.725Z,23.60
2018-04-22T08:27:27.601Z,27.37
2018-04-22T08:29:54.468Z,25.10
2018-04-22T08:32:21.772Z,27.17
2018-04-22T08:34:48.652Z,25.23
2018-04-22T08:37:15.536Z,26.70
2018-04-22T08:39:42.424Z,24.93
2018-04-22T08:42:09.684Z,25.77
2018-04-22T08:44:36.993Z,23.40
2018-04-22T08:47:03.865Z,24.93
2018-04-22T08:49:30.848Z,24.00
2018-04-22T08:51:57.725Z,26.40
2018-04-22T08:54:24.636Z,25.53
2018-04-22T08:56:51.593Z,24.23
2018-04-22T08:59:18.550Z,22.97
2018-04-22T09:01:45.420Z,25.77
2018-04-22T09:04:12.376Z,23.07
2018-04-22T09:06:39.252Z,23.40
2018-04-22T09:09:06.128Z,24.83
2018-04-22T09:11:33.040Z,25.47
2018-04-22T09:13:59.920Z,24.33
2018-04-22T09:16:26.895Z,24.60
2018-04-22T09:18:53.812Z,26.10
2018-04-22T09:21:20.697Z,26.17
2018-04-22T09:23:47.610Z,25.77
2018-04-22T09:26:14.497Z,25.30
2018-04-22T09:28:41.352Z,24.67
2018-04-22T09:31:08.230Z,23.03
2018-04-22T09:33:35.155Z,23.73
2018-04-22T09:36:02.029Z,21.37
2018-04-22T09:38:28.972Z,21.57
2018-04-22T09:40:56.080Z,21.70
2018-04-22T09:43:23.009Z,22.37
2018-04-22T09:45:49.888Z,24.13
2018-04-22T09:48:16.745Z,22.97
2018-04-22T09:50:43.673Z,22.80
2018-04-22T09:53:10.628Z,23.60
2018-04-22T09:55:37.600Z,22.23
2018-04-22T09:58:04.560Z,23.40
2018-04-22T10:00:31.432Z,24.73
2018-04-22T10:02:58.306Z,20.50
2018-04-22T10:05:25.216Z,22.23
2018-04-22T10:07:52.088Z,24.07
2018-04-22T10:10:19.000Z,25.97
2018-04-22T10:12:46.260Z,23.93
2018-04-22T10:15:13.573Z,25.73
2018-04-22T10:17:40.501Z,22.50
2018-04-22T10:20:07.544Z,20.90
2018-04-22T10:22:34.856Z,21.63
2018-04-22T10:25:01.713Z,20.37
2018-04-22T10:27:28.578Z,23.33
2018-04-22T10:29:55.452Z,22.90
2018-04-22T10:32:22.400Z,20.70
2018-04-22T10:34:49.376Z,19.33
2018-04-22T10:37:16.229Z,22.40
2018-04-22T10:39:43.112Z,22.40
2018-04-22T10:42:09.972Z,23.23
2018-04-22T10:44:37.240Z,21.40
2018-04-22T10:47:04.497Z,24.27
2018-04-22T10:49:31.421Z,20.77
2018-04-22T10:51:58.456Z,21.67
2018-04-22T10:54:25.830Z,19.77
2018-04-22T10:56:52.685Z,20.93
2018-04-22T10:59:19.582Z,19.77
2018-04-22T11:01:46.444Z,17.80
2018-04-22T11:04:13.327Z,18.07
2018-04-22T11:06:40.700Z,17.57
2018-04-22T11:09:07.536Z,18.60
2018-04-22T11:11:34.397Z,21.30
2018-04-22T11:14:01.281Z,18.83
2018-04-22T11:16:28.576Z,18.13
2018-04-22T11:18:55.531Z,18.30
2018-04-22T11:21:22.529Z,15.97
2018-04-22T11:23:49.415Z,18.37
2018-04-22T11:26:16.722Z,17.37
2018-04-22T11:28:43.714Z,17.33
2018-04-22T11:31:10.736Z,19.07
2018-04-22T11:33:37.719Z,19.87
2018-04-22T11:36:05.562Z,18.87
2018-04-22T11:38:32.590Z,21.53
2018-04-22T11:40:59.508Z,19.50
2018-04-22T11:43:26.467Z,13.90
2018-04-22T11:45:53.360Z,11.53
2018-04-22T11:48:20.312Z,11.73
2018-04-22T11:50:47.189Z,11.60
2018-04-22T11:53:14.434Z,10.57
2018-04-22T11:55:41.358Z,9.83
2018-04-22T11:58:08.337Z,12.80
2018-04-22T12:00:35.365Z,15.60
2018-04-22T12:03:02.340Z,12.10
2018-04-22T12:05:29.232Z,12.50
2018-04-22T12:07:56.164Z,11.30
2018-04-22T12:10:23.124Z,13.50
2018-04-22T12:12:50.005Z,12.80
2018-04-22T12:15:16.859Z,13.10
2018-04-22T12:17:43.720Z,11.10
2018-04-22T12:20:10.672Z,12.13
2018-04-22T12:22:37.619Z,12.03
2018-04-22T12:25:04.564Z,10.20
2018-04-22T12:27:31.439Z,11.07
2018-04-22T12:29:58.326Z,11.63
2018-04-22T12:32:25.189Z,11.90
2018-04-22T12:34:52.528Z,11.30
2018-04-22T12:37:19.485Z,11.57
2018-04-22T12:39:46.355Z,11.20
2018-04-22T12:42:13.218Z,10.97
2018-04-22T12:44:40.136Z,10.13
2018-04-22T12:47:07.099Z,13.60
2018-04-22T12:49:34.085Z,11.93
2018-04-22T12:52:00.936Z,12.53
2018-04-22T12:54:27.804Z,12.73
2018-04-22T12:56:54.670Z,12.63
2018-04-22T12:59:21.630Z,11.40
2018-04-22T13:01:48.480Z,11.80
2018-04-22T13:04:15.409Z,12.13
2018-04-22T13:06:42.265Z,10.90
2018-04-22T13:09:09.142Z,9.73
2018-04-22T13:11:36.021Z,12.50
2018-04-22T13:14:02.949Z,11.33
2018-04-22T13:16:29.889Z,12.17
2018-04-22T13:18:56.762Z,12.00
2018-04-22T13:21:23.636Z,11.53
2018-04-22T13:23:50.507Z,10.77
2018-04-22T13:26:17.384Z,12.13
2018-04-22T13:28:44.704Z,10.93
2018-04-22T13:31:11.567Z,12.17
2018-04-22T13:33:38.449Z,11.30
2018-04-22T13:36:05.386Z,10.20
2018-04-22T13:38:32.324Z,11.70
2018-04-22T13:40:59.192Z,12.20
2018-04-22T13:43:26.065Z,10.83
2018-04-22T13:45:54.046Z,10.97
2018-04-22T13:48:27.104Z,12.30
2018-04-22T13:50:54.515Z,11.27
2018-04-22T13:53:21.387Z,12.27
2018-04-22T13:55:48.276Z,11.40
2018-04-22T13:58:15.544Z,10.40
2018-04-22T14:00:42.872Z,11.33
2018-04-22T14:03:09.865Z,10.03
2018-04-22T14:05:37.128Z,11.40
2018-04-22T14:08:04.449Z,9.30
2018-04-22T14:10:31.301Z,11.40
2018-04-22T14:12:58.372Z,9.83
2018-04-22T14:15:25.297Z,11.43
2018-04-22T14:17:53.909Z,9.43
2018-04-22T14:20:20.768Z,10.50
2018-04-22T14:22:47.752Z,11.27
2018-04-22T14:25:14.767Z,9.80
2018-04-22T14:27:41.564Z,10.47
2018-04-22T14:30:08.510Z,11.00
2018-04-22T14:32:35.361Z,10.43
2018-04-22T14:35:02.603Z,9.17
2018-04-22T14:37:30.219Z,9.33
2018-04-22T14:39:57.124Z,9.30
2018-04-22T14:42:24.376Z,9.03
2018-04-22T14:45:03.323Z,8.77
2018-04-22T14:47:30.217Z,8.60
2018-04-22T14:49:57.471Z,10.33
2018-04-22T14:52:24.720Z,8.67
2018-04-22T14:54:51.619Z,9.13
2018-04-22T14:57:18.494Z,11.03
2018-04-22T14:59:45.352Z,8.83
2018-04-22T15:02:12.312Z,7.97
2018-04-22T15:04:39.172Z,8.17
2018-04-22T15:07:06.047Z,8.27
2018-04-22T15:09:32.983Z,7.90
2018-04-22T15:11:59.864Z,7.47
2018-04-22T15:14:26.724Z,5.73
2018-04-22T15:16:53.592Z,5.47
2018-04-22T15:19:20.558Z,6.00
2018-04-22T15:21:47.409Z,10.93
2018-04-22T15:24:14.276Z,5.97
2018-04-22T15:26:41.171Z,5.80
2018-04-22T15:29:08.041Z,4.50
2018-04-22T15:31:34.975Z,5.33
2018-04-22T15:34:01.846Z,5.67
2018-04-22T15:36:29.599Z,5.00
2018-04-22T15:38:56.492Z,6.70
2018-04-22T15:41:23.357Z,5.23
2018-04-22T15:43:50.361Z,5.20
2018-04-22T15:46:17.672Z,4.70
2018-04-22T15:48:44.536Z,4.97
2018-04-22T15:51:11.404Z,4.77
2018-04-22T15:53:38.264Z,4.60
2018-04-22T15:56:05.191Z,4.23
2018-04-22T15:58:32.041Z,6.13
2018-04-22T16:00:58.912Z,5.17
2018-04-22T16:03:25.869Z,7.27
2018-04-22T16:05:52.778Z,4.20
2018-04-22T16:08:19.683Z,4.90
2018-04-22T16:10:46.516Z,7.10
2018-04-22T16:13:13.824Z,4.40
2018-04-22T16:15:40.780Z,5.00
2018-04-22T16:18:07.740Z,4.13
2018-04-22T16:20:34.720Z,6.13
2018-04-22T16:23:01.575Z,4.83
2018-04-22T16:25:28.512Z,4.97
2018-04-22T16:27:55.491Z,5.17
2018-04-22T16:30:22.441Z,5.30
2018-04-22T16:32:49.412Z,4.93
2018-04-22T16:35:16.319Z,4.30
2018-04-22T16:37:43.133Z,5.80
2018-04-22T16:40:09.998Z,3.87
2018-04-22T16:42:36.862Z,4.33
2018-04-22T16:45:03.773Z,4.30
2018-04-22T16:47:30.649Z,6.70
2018-04-22T16:49:57.514Z,5.30
2018-04-22T16:52:24.441Z,4.80
2018-04-22T16:54:51.342Z,4.40
2018-04-22T16:57:18.252Z,4.60
2018-04-22T16:59:45.211Z,5.73
2018-04-22T17:02:12.067Z,4.20
2018-04-22T17:04:38.930Z,4.60
2018-04-22T17:07:05.880Z,4.70
2018-04-22T17:09:32.743Z,4.80
2018-04-22T17:11:59.699Z,4.77
2018-04-22T17:14:26.627Z,4.97
2018-04-22T17:16:53.954Z,4.63
2018-04-22T17:19:20.816Z,5.83
2018-04-22T17:21:47.703Z,4.80
2018-04-22T17:24:15.001Z,6.00
2018-04-22T17:26:42.215Z,5.57
2018-04-22T17:29:09.085Z,4.97
2018-04-22T17:31:35.934Z,5.23
2018-04-22T17:34:02.934Z,5.50
2018-04-22T17:36:29.803Z,5.00
2018-04-22T17:38:56.662Z,4.47
2018-04-22T17:41:23.519Z,4.20
2018-04-22T17:43:50.371Z,4.63
2018-04-22T17:46:17.236Z,3.90
2018-04-22T17:48:44.192Z,5.33
2018-04-22T17:51:11.035Z,5.70
2018-04-22T17:53:37.924Z,5.73
2018-04-22T17:56:04.867Z,6.30
2018-04-22T17:58:31.732Z,5.77
2018-04-22T18:00:58.693Z,5.77
2018-04-22T18:03:25.564Z,5.57
2018-04-22T18:05:52.500Z,5.33
2018-04-22T18:08:19.360Z,10.70
2018-04-22T18:10:46.329Z,6.83
2018-04-22T18:13:13.176Z,6.53
2018-04-22T18:15:40.131Z,6.10
2018-04-22T18:18:06.999Z,6.97
2018-04-22T18:20:33.847Z,4.53
2018-04-22T18:23:00.714Z,4.37
2018-04-22T18:25:27.664Z,4.90
2018-04-22T18:27:54.524Z,4.63
2018-04-22T18:30:21.542Z,3.77
2018-04-22T18:32:48.539Z,6.80
2018-04-22T18:35:15.400Z,5.67
2018-04-22T18:37:42.356Z,5.90
2018-04-22T18:40:09.203Z,7.13
2018-04-22T18:42:36.068Z,5.53
2018-04-22T18:45:02.944Z,4.97
2018-04-22T18:47:29.793Z,4.27
2018-04-22T18:49:56.752Z,4.50
2018-04-22T18:52:23.648Z,6.33
2018-04-22T18:54:50.497Z,8.10
2018-04-22T18:57:17.348Z,5.37
2018-04-22T18:59:44.280Z,8.10
2018-04-22T19:43:45.408Z,6.50
2018-04-22T19:46:12.735Z,6.43
2018-04-22T19:48:39.592Z,5.50
2018-04-22T19:51:06.456Z,6.70
2018-04-22T19:53:33.391Z,7.00
2018-04-22T19:56:00.348Z,5.43
2018-04-22T19:58:27.307Z,7.33
2018-04-22T20:00:54.176Z,6.43
2018-04-22T20:03:21.039Z,6.63
2018-04-22T20:05:47.997Z,6.77
2018-04-22T20:08:14.951Z,6.70
2018-04-22T20:10:41.904Z,9.27
2018-04-22T20:13:08.780Z,6.50
2018-04-22T20:15:35.677Z,9.33
2018-04-22T20:18:02.493Z,8.47
2018-04-22T20:20:29.360Z,9.80
2018-04-22T20:22:56.216Z,6.97
2018-04-22T20:25:23.155Z,7.73
2018-04-22T20:27:50.011Z,7.43
2018-04-22T20:30:16.965Z,6.57
2018-04-22T20:32:43.923Z,6.83
2018-04-22T20:35:10.795Z,6.80
2018-04-22T20:37:37.763Z,7.43
2018-04-22T20:40:04.634Z,10.90
2018-04-22T20:42:31.633Z,7.43
2018-04-22T20:44:58.525Z,8.07
2018-04-22T20:47:25.391Z,9.20
2018-04-22T20:49:52.463Z,7.90
2018-04-22T20:52:19.344Z,8.87
2018-04-22T20:54:46.216Z,6.27
2018-04-22T20:57:13.132Z,7.00
2018-04-22T20:59:40.010Z,6.63
2018-04-22T21:02:06.853Z,7.00
2018-04-22T21:04:33.780Z,6.60
2018-04-22T21:07:00.644Z,6.60
2018-04-22T21:09:27.512Z,5.37
2018-04-22T21:11:54.470Z,6.53
2018-04-22T21:14:21.430Z,8.00
2018-04-22T21:16:48.288Z,7.03
2018-04-22T21:19:15.160Z,7.10
2018-04-22T21:21:42.022Z,6.37
2018-04-22T21:24:08.952Z,7.37
2018-04-22T21:26:35.803Z,7.60
2018-04-22T21:29:02.775Z,7.40
2018-04-22T21:31:29.732Z,7.83
2018-04-22T21:33:56.714Z,8.00
2018-04-22T21:36:23.648Z,7.07
2018-04-22T21:38:50.518Z,6.20
2018-04-22T21:41:17.370Z,8.00
2018-04-22T21:43:44.333Z,6.50
2018-04-22T21:46:11.301Z,8.23
2018-04-22T21:48:38.195Z,7.97
2018-04-22T21:51:05.116Z,6.90
2018-04-22T21:53:32.057Z,6.83
2018-04-22T21:55:58.927Z,6.57
2018-04-22T21:58:25.781Z,6.97
2018-04-22T22:00:52.624Z,6.33
2018-04-22T22:03:19.525Z,7.37
2018-04-22T22:05:46.364Z,6.10
2018-04-22T22:08:13.244Z,7.30
2018-04-22T22:10:40.087Z,9.80
2018-04-22T22:13:07.052Z,7.03
2018-04-22T22:15:33.982Z,13.77
2018-04-22T22:18:00.848Z,7.07
2018-04-22T22:20:27.792Z,7.57
2018-04-22T22:22:54.675Z,7.77
2018-04-22T22:25:21.640Z,10.03
2018-04-22T22:27:48.492Z,7.27
2018-04-22T22:30:15.353Z,7.80
2018-04-22T22:32:42.200Z,8.77
2018-04-22T22:35:09.140Z,7.30
2018-04-22T22:37:35.987Z,7.23
2018-04-22T22:40:02.880Z,7.43
2018-04-22T22:42:29.779Z,6.90
2018-04-22T22:44:56.663Z,6.27
2018-04-22T22:47:23.660Z,7.20
2018-04-22T22:49:50.611Z,10.77
2018-04-22T22:52:17.556Z,8.83
2018-04-22T22:54:44.504Z,13.90
2018-04-22T22:57:11.459Z,7.23
2018-04-22T22:59:38.338Z,8.37
2018-04-22T23:02:05.195Z,7.90
2018-04-22T23:04:32.052Z,6.37
2018-04-22T23:06:58.996Z,7.63
2018-04-22T23:09:25.951Z,6.80
2018-04-22T23:11:52.809Z,7.30
2018-04-22T23:14:19.779Z,7.20
2018-04-22T23:16:46.656Z,10.00
2018-04-22T23:19:13.523Z,8.87
2018-04-22T23:21:40.380Z,8.10
2018-04-22T23:24:07.244Z,7.63
2018-04-22T23:26:34.152Z,7.27
2018-04-22T23:29:01.016Z,7.10
2018-04-22T23:31:27.984Z,7.77
2018-04-22T23:33:54.832Z,7.17
2018-04-22T23:36:21.803Z,7.43
2018-04-22T23:38:48.681Z,10.70
2018-04-22T23:41:15.540Z,7.87
2018-04-22T23:43:42.388Z,7.47
2018-04-22T23:46:09.312Z,10.23
2018-04-22T23:48:36.278Z,6.70
2018-04-22T23:51:03.120Z,8.30
2018-04-22T23:53:30.019Z,8.10
2018-04-22T23:55:56.880Z,7.10
2018-04-22T23:58:23.813Z,9.57
